Time;durP1;ratioP1;P1;durP2;ratioP2;P2;SDS_P1;SDS_P2;PMS_P1;PMS_P2;Temp;Humidity;BMP_temperature;BMP_pressure;BME280_temperature;BME280_humidity;BME280_pressure;Samples;Min_cycle;Max_cycle;Signal;HPM_P1;HPM_P2
2022/01/13 00:00:20;;;;;;;29.08;12.15;;;;;;;;;;4990934;28;20269;-63
2022/01/13 00:02:47;;;;;;;30.63;12.23;;;;;;;;;;4991139;28;20662;-64
2022/01/13 00:05:12;;;;;;;28.77;11.82;;;;;;;;;;4990925;28;20194;-63
2022/01/13 00:07:38;;;;;;;33.38;11.55;;;;;;;;;;4990472;28;20226;-64
2022/01/13 00:10:05;;;;;;;26.55;11.27;;;;;;;;;;4990892;28;20175;-64
2022/01/13 00:12:36;;;;;;;29.15;12.18;;;;;;;;;;4990426;28;20229;-64
2022/01/13 00:15:21;;;;;;;26.15;11.50;;;;;;;;;;4990846;28;20147;-64
2022/01/13 00:17:59;;;;;;;29.80;12.55;;;;;;;;;;4989732;28;20159;-64
2022/01/13 00:23:40;;;;;;;27.70;11.82;;;;;;;;;;4977647;28;20172;-64
2022/01/13 00:25:38;;;;;;;27.92;11.48;;;;;;;;;;4977283;28;20600;-64
2022/01/13 00:28:13;;;;;;;28.88;11.55;;;;;;;;;;4977520;28;20222;-64
2022/01/13 00:30:39;;;;;;;26.83;11.18;;;;;;;;;;4977631;28;20171;-64
2022/01/13 00:33:05;;;;;;;24.60;10.98;;;;;;;;;;4977656;28;20171;-63
2022/01/13 00:35:31;;;;;;;37.22;11.80;;;;;;;;;;4977908;28;20596;-64
2022/01/13 00:37:57;;;;;;;25.67;10.98;;;;;;;;;;4977526;28;20178;-63
2022/01/13 00:40:23;;;;;;;28.98;11.93;;;;;;;;;;4977844;28;20184;-63
2022/01/13 00:42:49;;;;;;;29.17;11.30;;;;;;;;;;4977716;28;20175;-62
2022/01/13 00:45:16;;;;;;;25.02;9.82;;;;;;;;;;4977757;28;20235;-62
2022/01/13 00:47:42;;;;;;;26.30;11.88;;;;;;;;;;4977256;28;20662;-62
2022/01/13 00:50:08;;;;;;;24.92;10.35;;;;;;;;;;4977249;28;20160;-62
2022/01/13 00:52:34;;;;;;;25.83;10.52;;;;;;;;;;4976943;28;20203;-62
2022/01/13 00:55:07;;;;;;;24.17;10.82;;;;;;;;;;4977271;28;20279;-62
2022/01/13 00:57:33;;;;;;;28.08;10.27;;;;;;;;;;4977405;28;20164;-63
2022/01/13 01:00:00;;;;;;;25.25;11.18;;;;;;;;;;4977542;28;20182;-63
2022/01/13 01:02:27;;;;;;;26.23;10.93;;;;;;;;;;4977217;28;20518;-63
2022/01/13 01:04:53;;;;;;;19.05;9.85;;;;;;;;;;4977338;28;20237;-63
2022/01/13 01:07:19;;;;;;;23.17;10.52;;;;;;;;;;4976673;28;20183;-63
2022/01/13 01:09:50;;;;;;;23.17;9.57;;;;;;;;;;4976927;28;20172;-63
2022/01/13 01:12:16;;;;;;;27.50;11.35;;;;;;;;;;4977058;28;20187;-63
2022/01/13 01:14:47;;;;;;;26.20;10.70;;;;;;;;;;4977144;28;20163;-63
2022/01/13 01:17:17;;;;;;;23.25;10.45;;;;;;;;;;4977017;28;20174;-63
2022/01/13 01:19:47;;;;;;;24.33;11.27;;;;;;;;;;4977292;28;20174;-63
2022/01/13 01:25:20;;;;;;;26.38;10.35;;;;;;;;;;4976893;28;20170;-63
2022/01/13 01:27:50;;;;;;;21.83;9.32;;;;;;;;;;4976315;28;20188;-64
2022/01/13 01:30:40;;;;;;;23.52;10.00;;;;;;;;;;4975538;28;20183;-63
2022/01/13 01:33:10;;;;;;;19.15;9.52;;;;;;;;;;4976065;28;20581;-65
2022/01/13 01:35:38;;;;;;;21.15;9.90;;;;;;;;;;4976461;28;20178;-63
2022/01/13 01:38:04;;;;;;;25.90;9.98;;;;;;;;;;4976240;28;20507;-64
2022/01/13 01:40:30;;;;;;;28.17;10.70;;;;;;;;;;4976253;28;20183;-64
2022/01/13 01:42:56;;;;;;;20.67;9.80;;;;;;;;;;4974836;28;20187;-64
2022/01/13 01:45:22;;;;;;;23.38;10.07;;;;;;;;;;4976446;28;20171;-64
2022/01/13 01:47:51;;;;;;;19.17;9.23;;;;;;;;;;4975829;28;20187;-63
2022/01/13 01:50:18;;;;;;;24.52;10.10;;;;;;;;;;4976021;28;20246;-63
2022/01/13 01:52:46;;;;;;;24.05;11.23;;;;;;;;;;4975980;28;20453;-63
2022/01/13 01:55:12;;;;;;;21.20;8.63;;;;;;;;;;4975758;28;20164;-62
2022/01/13 01:57:38;;;;;;;24.83;10.38;;;;;;;;;;4975775;28;20422;-63
2022/01/13 02:00:09;;;;;;;23.48;9.60;;;;;;;;;;4975600;28;20191;-63
2022/01/13 02:02:35;;;;;;;21.63;10.05;;;;;;;;;;4975723;28;20186;-63
2022/01/13 02:05:01;;;;;;;22.02;9.13;;;;;;;;;;4975633;28;20607;-63
2022/01/13 02:07:27;;;;;;;19.90;9.32;;;;;;;;;;4975402;28;20274;-63
2022/01/13 02:09:53;;;;;;;21.02;10.35;;;;;;;;;;4975412;28;20258;-63
2022/01/13 02:12:44;;;;;;;20.55;9.77;;;;;;;;;;4975409;28;20249;-63
2022/01/13 02:17:40;;;;;;;23.50;10.27;;;;;;;;;;4975628;28;20175;-64
2022/01/13 02:20:07;;;;;;;20.10;9.65;;;;;;;;;;4975156;28;20511;-64
2022/01/13 02:22:34;;;;;;;25.50;10.38;;;;;;;;;;4975264;28;20197;-64
2022/01/13 02:25:00;;;;;;;24.48;10.07;;;;;;;;;;4975148;28;20175;-64
2022/01/13 02:27:26;;;;;;;19.25;8.80;;;;;;;;;;4975043;28;20191;-64
2022/01/13 02:29:52;;;;;;;21.88;9.18;;;;;;;;;;4975356;28;20168;-63
2022/01/13 02:32:19;;;;;;;20.77;9.23;;;;;;;;;;4974879;28;20175;-64
2022/01/13 02:34:44;;;;;;;18.17;7.72;;;;;;;;;;4975270;28;20500;-64
2022/01/13 02:37:11;;;;;;;18.83;8.23;;;;;;;;;;4974939;28;20172;-64
2022/01/13 02:39:37;;;;;;;19.10;9.25;;;;;;;;;;4974850;28;20182;-64
2022/01/13 02:42:05;;;;;;;16.55;8.00;;;;;;;;;;4975038;28;20179;-64
2022/01/13 02:44:31;;;;;;;23.15;9.82;;;;;;;;;;4975259;28;20175;-64
2022/01/13 02:47:10;;;;;;;23.23;8.52;;;;;;;;;;4975042;28;20218;-64
2022/01/13 02:49:36;;;;;;;20.00;8.65;;;;;;;;;;4975057;28;20163;-64
2022/01/13 02:52:03;;;;;;;21.02;9.15;;;;;;;;;;4975067;28;20164;-64
2022/01/13 02:54:29;;;;;;;17.55;9.13;;;;;;;;;;4974948;28;20167;-64
2022/01/13 02:56:55;;;;;;;19.88;8.93;;;;;;;;;;4974697;28;20175;-64
2022/01/13 02:59:21;;;;;;;21.17;9.63;;;;;;;;;;4974879;28;20187;-64
2022/01/13 03:01:47;;;;;;;18.55;9.18;;;;;;;;;;4974708;28;20178;-64
2022/01/13 03:04:13;;;;;;;17.50;9.15;;;;;;;;;;4974654;28;20182;-63
2022/01/13 03:06:41;;;;;;;18.10;9.23;;;;;;;;;;4974827;28;20631;-63
2022/01/13 03:09:08;;;;;;;18.90;9.10;;;;;;;;;;4974701;28;20164;-63
2022/01/13 03:11:37;;;;;;;19.90;8.75;;;;;;;;;;4974760;28;20595;-63
2022/01/13 03:14:04;;;;;;;22.52;9.25;;;;;;;;;;4974857;28;20164;-63
2022/01/13 03:16:30;;;;;;;16.20;7.85;;;;;;;;;;4974521;28;20171;-63
2022/01/13 03:18:57;;;;;;;19.83;8.90;;;;;;;;;;4974484;28;20202;-64
2022/01/13 03:21:23;;;;;;;19.92;9.32;;;;;;;;;;4974543;28;20225;-63
2022/01/13 03:23:50;;;;;;;17.80;8.63;;;;;;;;;;4974460;28;20167;-63
2022/01/13 03:26:16;;;;;;;20.20;9.70;;;;;;;;;;4974477;28;20476;-63
2022/01/13 03:28:54;;;;;;;15.32;7.90;;;;;;;;;;4974848;28;20322;-63
2022/01/13 03:31:20;;;;;;;17.90;8.60;;;;;;;;;;4974748;28;20171;-63
2022/01/13 03:33:47;;;;;;;17.63;9.18;;;;;;;;;;4974681;28;20223;-63
2022/01/13 03:36:13;;;;;;;15.88;8.20;;;;;;;;;;4974454;28;20546;-63
2022/01/13 03:38:39;;;;;;;17.20;8.57;;;;;;;;;;4973274;28;20175;-63
2022/01/13 03:41:05;;;;;;;18.25;8.10;;;;;;;;;;4974333;28;20639;-63
2022/01/13 03:43:32;;;;;;;17.52;8.27;;;;;;;;;;4974466;28;20193;-63
2022/01/13 03:45:58;;;;;;;19.95;9.15;;;;;;;;;;4974562;28;20221;-63
2022/01/13 03:48:24;;;;;;;16.92;9.05;;;;;;;;;;4974065;28;20346;-63
2022/01/13 03:50:50;;;;;;;18.52;8.93;;;;;;;;;;4974201;28;20246;-63
2022/01/13 03:53:36;;;;;;;15.27;7.78;;;;;;;;;;4974476;28;20175;-63
2022/01/13 03:56:17;;;;;;;18.17;8.93;;;;;;;;;;4978162;28;20210;-63
2022/01/13 03:59:02;;;;;;;17.17;8.70;;;;;;;;;;4977715;28;20257;-63
2022/01/13 04:01:52;;;;;;;15.52;7.47;;;;;;;;;;4977857;28;20423;-63
2022/01/13 04:04:18;;;;;;;14.80;7.95;;;;;;;;;;4977667;28;20190;-63
2022/01/13 04:06:45;;;;;;;17.13;8.73;;;;;;;;;;4977568;28;20187;-64
2022/01/13 04:09:23;;;;;;;16.58;7.68;;;;;;;;;;4977566;28;20159;-63
2022/01/13 04:11:51;;;;;;;14.68;7.47;;;;;;;;;;4977414;28;20179;-63
2022/01/13 04:14:26;;;;;;;19.05;8.00;;;;;;;;;;4977503;28;20198;-63
2022/01/13 04:16:52;;;;;;;16.17;7.57;;;;;;;;;;4977570;28;20606;-63
2022/01/13 04:19:18;;;;;;;23.70;8.85;;;;;;;;;;4977550;28;20176;-63
2022/01/13 04:21:44;;;;;;;13.82;6.95;;;;;;;;;;4977651;28;20172;-63
2022/01/13 04:24:11;;;;;;;14.02;7.55;;;;;;;;;;4977410;28;20168;-63
2022/01/13 04:26:37;;;;;;;16.60;8.10;;;;;;;;;;4977699;28;20502;-63
2022/01/13 04:31:40;;;;;;;18.13;7.95;;;;;;;;;;4977724;28;20299;-63
2022/01/13 04:34:06;;;;;;;10.48;5.97;;;;;;;;;;4976268;28;20226;-63
2022/01/13 04:36:32;;;;;;;13.40;6.32;;;;;;;;;;4977127;28;20164;-63
2022/01/13 04:38:58;;;;;;;13.40;6.32;;;;;;;;;;4976960;28;20876;-63
2022/01/13 04:41:34;;;;;;;14.20;7.63;;;;;;;;;;4977334;28;20175;-63
2022/01/13 04:44:00;;;;;;;12.27;6.97;;;;;;;;;;4977339;28;20156;-63
2022/01/13 04:46:26;;;;;;;14.88;6.40;;;;;;;;;;4976907;28;20523;-63
2022/01/13 04:48:52;;;;;;;16.13;7.15;;;;;;;;;;4977255;28;20246;-63
2022/01/13 04:51:18;;;;;;;14.73;6.72;;;;;;;;;;4977055;28;20668;-63
2022/01/13 04:53:44;;;;;;;13.48;6.03;;;;;;;;;;4976888;28;20167;-64
2022/01/13 04:56:14;;;;;;;11.82;5.85;;;;;;;;;;4976773;28;20262;-63
2022/01/13 04:58:40;;;;;;;12.82;6.20;;;;;;;;;;4977130;28;20170;-63
2022/01/13 05:01:06;;;;;;;11.88;5.65;;;;;;;;;;4976636;28;20175;-63
2022/01/13 05:03:32;;;;;;;13.52;6.85;;;;;;;;;;4976696;28;20172;-63
2022/01/13 05:05:58;;;;;;;15.30;6.75;;;;;;;;;;4976503;28;20231;-63
2022/01/13 05:08:24;;;;;;;11.50;6.55;;;;;;;;;;4976758;28;20263;-63
2022/01/13 05:10:50;;;;;;;11.50;6.47;;;;;;;;;;4976418;28;20255;-63
2022/01/13 05:13:16;;;;;;;15.45;6.53;;;;;;;;;;4976481;28;20270;-63
2022/01/13 05:15:43;;;;;;;14.45;7.47;;;;;;;;;;4976616;28;20164;-63
2022/01/13 05:18:46;;;;;;;15.73;6.80;;;;;;;;;;4976635;28;20175;-64
2022/01/13 05:21:04;;;;;;;12.73;6.72;;;;;;;;;;4975914;28;20183;-63
2022/01/13 05:23:30;;;;;;;16.33;7.60;;;;;;;;;;4975486;28;20163;-63
2022/01/13 05:25:56;;;;;;;13.48;6.63;;;;;;;;;;4976387;28;20604;-63
2022/01/13 05:28:22;;;;;;;13.80;6.60;;;;;;;;;;4976155;28;20192;-63
2022/01/13 05:30:48;;;;;;;14.20;7.80;;;;;;;;;;4976141;28;20164;-64
2022/01/13 05:33:14;;;;;;;12.25;6.60;;;;;;;;;;4976531;28;20164;-64
2022/01/13 05:35:40;;;;;;;14.80;7.03;;;;;;;;;;4976164;28;20271;-63
2022/01/13 05:38:07;;;;;;;12.35;6.57;;;;;;;;;;4976194;28;20183;-64
2022/01/13 05:40:34;;;;;;;12.45;6.50;;;;;;;;;;4976033;28;20178;-64
2022/01/13 05:43:00;;;;;;;17.98;6.95;;;;;;;;;;4976082;28;20168;-63
2022/01/13 05:45:29;;;;;;;12.82;7.32;;;;;;;;;;4975765;28;20175;-63
2022/01/13 05:47:56;;;;;;;13.30;6.85;;;;;;;;;;4976171;28;20246;-64
2022/01/13 05:50:22;;;;;;;15.48;7.05;;;;;;;;;;4975663;28;20167;-63
2022/01/13 05:52:48;;;;;;;15.00;6.70;;;;;;;;;;4975767;28;20172;-64
2022/01/13 05:55:15;;;;;;;14.38;7.50;;;;;;;;;;4975621;28;20163;-64
2022/01/13 05:57:41;;;;;;;13.85;7.35;;;;;;;;;;4975907;28;20203;-64
2022/01/13 06:00:09;;;;;;;11.65;6.65;;;;;;;;;;4975474;28;20247;-64
2022/01/13 06:02:35;;;;;;;15.23;7.13;;;;;;;;;;4975647;28;20164;-64
2022/01/13 06:05:01;;;;;;;19.38;8.18;;;;;;;;;;4975444;28;20171;-64
2022/01/13 06:07:26;;;;;;;17.92;7.20;;;;;;;;;;4975719;28;20520;-63
2022/01/13 06:09:52;;;;;;;15.00;7.85;;;;;;;;;;4975409;28;20250;-63
2022/01/13 06:12:20;;;;;;;15.50;7.88;;;;;;;;;;4975302;28;20615;-63
2022/01/13 06:14:47;;;;;;;15.25;7.65;;;;;;;;;;4975586;28;20172;-63
2022/01/13 06:17:13;;;;;;;19.23;8.50;;;;;;;;;;4973732;28;20190;-63
2022/01/13 06:19:38;;;;;;;18.92;8.35;;;;;;;;;;4975466;28;20168;-63
2022/01/13 06:22:04;;;;;;;18.27;8.15;;;;;;;;;;4975076;28;20612;-64
2022/01/13 06:24:30;;;;;;;17.70;8.10;;;;;;;;;;4975483;28;20175;-64
2022/01/13 06:26:57;;;;;;;21.77;9.35;;;;;;;;;;4974985;28;20221;-64
2022/01/13 06:29:23;;;;;;;19.85;8.60;;;;;;;;;;4975378;28;20171;-64
2022/01/13 06:31:48;;;;;;;20.20;8.77;;;;;;;;;;4974965;28;20480;-63
2022/01/13 06:34:14;;;;;;;23.38;9.77;;;;;;;;;;4974952;28;20172;-64
2022/01/13 06:36:40;;;;;;;23.98;10.07;;;;;;;;;;4974918;28;20159;-64
2022/01/13 06:39:06;;;;;;;21.80;9.60;;;;;;;;;;4974944;28;20167;-64
2022/01/13 06:41:38;;;;;;;21.95;9.32;;;;;;;;;;4975166;28;20230;-64
2022/01/13 06:44:05;;;;;;;21.25;9.60;;;;;;;;;;4975218;28;20481;-64
2022/01/13 06:46:31;;;;;;;23.67;9.77;;;;;;;;;;4975100;28;20171;-64
2022/01/13 06:48:57;;;;;;;20.33;9.63;;;;;;;;;;4974869;28;20582;-64
2022/01/13 06:51:23;;;;;;;21.30;9.50;;;;;;;;;;4975091;28;20168;-63
2022/01/13 06:53:48;;;;;;;26.40;10.45;;;;;;;;;;4975022;28;20163;-62
2022/01/13 06:56:14;;;;;;;21.90;10.32;;;;;;;;;;4974528;28;20576;-64
2022/01/13 06:58:44;;;;;;;19.27;10.13;;;;;;;;;;4974879;28;20626;-62
2022/01/13 07:01:10;;;;;;;23.42;9.50;;;;;;;;;;4974780;28;20662;-63
2022/01/13 07:03:36;;;;;;;21.52;9.43;;;;;;;;;;4974491;28;20167;-62
2022/01/13 07:06:02;;;;;;;18.83;8.93;;;;;;;;;;4974623;28;20191;-63
2022/01/13 07:08:28;;;;;;;20.95;9.40;;;;;;;;;;4974517;28;20606;-63
2022/01/13 07:10:54;;;;;;;21.55;9.02;;;;;;;;;;4974445;28;20176;-63
2022/01/13 07:13:19;;;;;;;19.20;9.68;;;;;;;;;;4974437;28;20267;-63
2022/01/13 07:15:46;;;;;;;20.77;9.13;;;;;;;;;;4974391;28;20178;-63
2022/01/13 07:18:12;;;;;;;20.30;9.23;;;;;;;;;;4974505;28;20491;-63
2022/01/13 07:20:40;;;;;;;20.33;9.13;;;;;;;;;;4974392;28;20695;-64
2022/01/13 07:23:06;;;;;;;17.83;9.15;;;;;;;;;;4974527;28;20172;-63
2022/01/13 07:25:32;;;;;;;15.88;8.60;;;;;;;;;;4974496;28;20167;-63
2022/01/13 07:27:58;;;;;;;16.90;9.10;;;;;;;;;;4974727;28;20205;-63
2022/01/13 07:30:24;;;;;;;22.10;8.80;;;;;;;;;;4978727;28;20171;-63
2022/01/13 07:32:50;;;;;;;18.27;9.95;;;;;;;;;;4978415;28;20588;-63
2022/01/13 07:35:16;;;;;;;23.58;9.05;;;;;;;;;;4978448;28;20163;-63
2022/01/13 07:37:42;;;;;;;20.85;10.23;;;;;;;;;;4978104;28;20175;-63
2022/01/13 07:40:13;;;;;;;19.50;8.57;;;;;;;;;;4978493;28;20190;-63
2022/01/13 07:42:41;;;;;;;17.80;8.32;;;;;;;;;;4978514;28;20175;-64
2022/01/13 07:45:07;;;;;;;23.42;9.07;;;;;;;;;;4978368;28;20167;-64
2022/01/13 07:47:33;;;;;;;18.45;8.27;;;;;;;;;;4977888;28;20183;-64
2022/01/13 07:49:59;;;;;;;20.08;9.60;;;;;;;;;;4977916;28;20344;-64
2022/01/13 07:52:27;;;;;;;21.63;9.95;;;;;;;;;;4977803;28;20190;-64
2022/01/13 07:54:53;;;;;;;19.98;10.43;;;;;;;;;;4977874;28;20171;-64
2022/01/13 07:57:19;;;;;;;21.58;10.10;;;;;;;;;;4977707;28;20168;-64
2022/01/13 07:59:45;;;;;;;21.42;9.55;;;;;;;;;;4978054;28;20186;-64
2022/01/13 08:02:10;;;;;;;25.05;10.05;;;;;;;;;;4977721;28;20199;-64
2022/01/13 08:04:36;;;;;;;23.23;9.35;;;;;;;;;;4977700;28;20266;-64
2022/01/13 08:07:02;;;;;;;24.20;9.95;;;;;;;;;;4977458;28;20187;-64
2022/01/13 08:09:28;;;;;;;16.95;8.23;;;;;;;;;;4977551;28;20233;-64
2022/01/13 08:11:54;;;;;;;19.45;7.35;;;;;;;;;;4977476;28;20187;-64
2022/01/13 08:14:20;;;;;;;21.55;9.45;;;;;;;;;;4977553;28;20159;-64
2022/01/13 08:16:47;;;;;;;24.02;10.25;;;;;;;;;;4977360;28;20195;-64
2022/01/13 08:21:58;;;;;;;28.02;9.98;;;;;;;;;;4977841;28;20495;-63
2022/01/13 08:24:24;;;;;;;23.10;9.20;;;;;;;;;;4977538;28;20171;-63
2022/01/13 08:26:49;;;;;;;21.70;10.05;;;;;;;;;;4977156;28;20191;-63
2022/01/13 08:29:15;;;;;;;20.20;9.20;;;;;;;;;;4977916;28;20207;-63
2022/01/13 08:31:41;;;;;;;22.08;9.10;;;;;;;;;;4978290;28;20319;-63
2022/01/13 08:34:07;;;;;;;19.90;8.05;;;;;;;;;;4977694;28;20582;-64
2022/01/13 08:36:33;;;;;;;20.58;9.02;;;;;;;;;;4977449;28;20259;-64
2022/01/13 08:38:59;;;;;;;17.58;9.15;;;;;;;;;;4976772;28;20174;-63
2022/01/13 08:41:25;;;;;;;18.00;9.32;;;;;;;;;;4977041;28;20171;-63
2022/01/13 08:43:53;;;;;;;21.45;9.00;;;;;;;;;;4977016;28;20175;-63
2022/01/13 08:46:19;;;;;;;20.67;9.32;;;;;;;;;;4977283;28;20167;-63
2022/01/13 08:48:45;;;;;;;17.05;8.70;;;;;;;;;;4977224;28;20507;-64
2022/01/13 08:51:11;;;;;;;19.75;9.15;;;;;;;;;;4976917;28;20604;-64
2022/01/13 08:53:38;;;;;;;17.80;8.30;;;;;;;;;;4977130;28;20164;-64
2022/01/13 08:56:04;;;;;;;21.15;8.65;;;;;;;;;;4977056;28;20172;-64
2022/01/13 08:58:30;;;;;;;19.02;9.15;;;;;;;;;;4959749;28;20180;-63
2022/01/13 09:00:56;;;;;;;19.42;9.35;;;;;;;;;;4976699;28;20182;-64
2022/01/13 09:03:22;;;;;;;20.17;8.77;;;;;;;;;;4976893;28;20167;-64
2022/01/13 09:05:48;;;;;;;22.98;8.90;;;;;;;;;;4976598;28;20449;-63
2022/01/13 09:08:14;;;;;;;19.40;8.40;;;;;;;;;;4976418;28;20203;-63
2022/01/13 09:10:41;;;;;;;20.48;7.97;;;;;;;;;;4976555;28;20254;-64
2022/01/13 09:13:08;;;;;;;16.77;7.97;;;;;;;;;;4976465;28;20206;-63
2022/01/13 09:15:41;;;;;;;16.63;8.32;;;;;;;;;;4976789;28;20586;-64
2022/01/13 09:18:10;;;;;;;19.55;9.13;;;;;;;;;;4977090;28;20183;-64
2022/01/13 09:20:37;;;;;;;19.70;8.23;;;;;;;;;;4976715;28;20186;-64
2022/01/13 09:23:03;;;;;;;18.50;8.27;;;;;;;;;;4976247;28;20597;-64
2022/01/13 09:25:29;;;;;;;19.40;7.82;;;;;;;;;;4976317;28;20323;-64
2022/01/13 09:27:55;;;;;;;17.83;7.80;;;;;;;;;;4976056;28;20551;-63
2022/01/13 09:30:21;;;;;;;17.23;7.70;;;;;;;;;;4976305;28;20174;-63
2022/01/13 09:32:47;;;;;;;19.77;8.55;;;;;;;;;;4976003;28;20175;-63
2022/01/13 09:35:13;;;;;;;17.10;7.65;;;;;;;;;;4976033;28;20164;-63
2022/01/13 09:37:39;;;;;;;17.98;7.65;;;;;;;;;;4975791;28;20687;-63
2022/01/13 09:40:07;;;;;;;15.88;7.32;;;;;;;;;;4976051;28;20164;-63
2022/01/13 09:42:33;;;;;;;18.73;7.22;;;;;;;;;;4976188;28;20172;-63
2022/01/13 09:45:01;;;;;;;15.15;6.78;;;;;;;;;;4975917;28;20222;-63
2022/01/13 09:47:27;;;;;;;18.00;7.53;;;;;;;;;;4976008;28;20197;-64
2022/01/13 09:49:53;;;;;;;13.98;7.22;;;;;;;;;;4975998;28;20251;-64
2022/01/13 09:52:20;;;;;;;15.65;7.07;;;;;;;;;;4975415;28;20176;-64
2022/01/13 09:54:46;;;;;;;15.35;6.50;;;;;;;;;;4975746;28;20167;-64
2022/01/13 09:57:12;;;;;;;15.63;7.18;;;;;;;;;;4975324;28;20674;-63
2022/01/13 09:59:38;;;;;;;12.65;6.63;;;;;;;;;;4975742;28;20238;-64
2022/01/13 10:02:04;;;;;;;14.10;7.57;;;;;;;;;;4975509;28;20218;-64
2022/01/13 10:04:46;;;;;;;17.90;7.60;;;;;;;;;;4975427;28;20204;-63
2022/01/13 10:07:13;;;;;;;14.50;7.15;;;;;;;;;;4976216;28;20191;-63
2022/01/13 10:09:55;;;;;;;15.75;7.95;;;;;;;;;;4976419;28;20172;-64
2022/01/13 10:12:25;;;;;;;12.88;7.35;;;;;;;;;;4976733;28;20183;-64
2022/01/13 10:17:24;;;;;;;16.48;8.07;;;;;;;;;;4976837;28;20279;-64
2022/01/13 10:19:50;;;;;;;14.43;7.47;;;;;;;;;;4976232;28;20667;-64
2022/01/13 10:22:23;;;;;;;14.07;7.32;;;;;;;;;;4976858;28;20191;-64
2022/01/13 10:24:54;;;;;;;15.85;7.40;;;;;;;;;;4976788;28;20166;-64
2022/01/13 10:27:27;;;;;;;14.70;7.53;;;;;;;;;;4976729;28;20195;-64
2022/01/13 10:29:58;;;;;;;14.52;7.47;;;;;;;;;;4976461;28;20173;-64
2022/01/13 10:32:25;;;;;;;13.68;7.53;;;;;;;;;;4976618;28;20201;-64
2022/01/13 10:34:58;;;;;;;16.10;7.72;;;;;;;;;;4976600;28;20167;-64
2022/01/13 10:37:34;;;;;;;16.83;7.28;;;;;;;;;;4976190;28;20262;-64
2022/01/13 10:40:15;;;;;;;14.68;8.00;;;;;;;;;;4977549;28;20167;-64
2022/01/13 10:45:27;;;;;;;18.58;7.57;;;;;;;;;;4978623;28;20615;-65
2022/01/13 10:47:56;;;;;;;15.95;7.45;;;;;;;;;;4978358;28;20198;-65
2022/01/13 10:50:26;;;;;;;14.35;7.63;;;;;;;;;;4978691;28;20234;-65
2022/01/13 10:52:52;;;;;;;10.60;6.18;;;;;;;;;;4978567;28;20258;-65
2022/01/13 10:55:19;;;;;;;17.77;6.82;;;;;;;;;;4978158;28;20206;-65
2022/01/13 10:57:46;;;;;;;17.77;7.40;;;;;;;;;;4976887;28;20183;-65
2022/01/13 11:00:17;;;;;;;14.50;7.35;;;;;;;;;;4976400;28;20171;-64
2022/01/13 11:02:58;;;;;;;17.75;8.27;;;;;;;;;;4977547;28;20596;-64
2022/01/13 11:05:25;;;;;;;16.02;7.25;;;;;;;;;;4977788;28;20187;-64
2022/01/13 11:07:51;;;;;;;13.50;7.22;;;;;;;;;;4976756;28;20473;-64
2022/01/13 11:10:17;;;;;;;15.88;7.07;;;;;;;;;;4977054;28;20170;-64
2022/01/13 11:12:44;;;;;;;14.63;7.05;;;;;;;;;;4977501;28;20254;-64
2022/01/13 11:15:14;;;;;;;15.00;7.63;;;;;;;;;;4977755;28;20159;-64
2022/01/13 11:17:43;;;;;;;11.82;7.30;;;;;;;;;;4977947;28;20504;-64
2022/01/13 11:20:10;;;;;;;17.20;7.15;;;;;;;;;;4977850;28;20620;-64
2022/01/13 11:22:37;;;;;;;13.43;6.70;;;;;;;;;;4977761;28;20179;-64
2022/01/13 11:25:07;;;;;;;14.98;7.93;;;;;;;;;;4977472;28;20191;-64
2022/01/13 11:27:33;;;;;;;15.75;6.93;;;;;;;;;;4977636;28;20195;-64
2022/01/13 11:29:59;;;;;;;14.32;7.18;;;;;;;;;;4977633;28;20221;-64
2022/01/13 11:32:25;;;;;;;13.10;6.80;;;;;;;;;;4977292;28;20241;-64
2022/01/13 11:34:52;;;;;;;13.80;6.68;;;;;;;;;;4977596;28;20674;-64
2022/01/13 11:37:18;;;;;;;14.30;7.35;;;;;;;;;;4976884;28;20168;-64
2022/01/13 11:39:45;;;;;;;15.10;7.03;;;;;;;;;;4976486;28;20179;-64
2022/01/13 11:42:12;;;;;;;15.80;7.50;;;;;;;;;;4976034;28;20175;-64
2022/01/13 11:44:39;;;;;;;15.82;7.40;;;;;;;;;;4976127;28;20176;-65
2022/01/13 11:47:25;;;;;;;13.80;6.60;;;;;;;;;;4975842;28;20282;-64
2022/01/13 11:50:03;;;;;;;14.10;6.68;;;;;;;;;;4976855;28;20689;-64
2022/01/13 11:52:47;;;;;;;13.25;6.93;;;;;;;;;;4976196;28;20523;-64
2022/01/13 11:55:23;;;;;;;15.27;7.85;;;;;;;;;;4975948;28;20155;-64
2022/01/13 11:57:49;;;;;;;14.25;7.45;;;;;;;;;;4976604;28;20554;-64
2022/01/13 12:00:22;;;;;;;15.90;7.50;;;;;;;;;;4976615;28;20187;-64
2022/01/13 12:02:48;;;;;;;12.57;7.13;;;;;;;;;;4975887;28;20180;-64
2022/01/13 12:05:17;;;;;;;14.95;8.00;;;;;;;;;;4975412;28;20238;-64
2022/01/13 12:07:44;;;;;;;17.65;7.70;;;;;;;;;;4975691;28;20200;-65
2022/01/13 12:10:31;;;;;;;13.75;7.35;;;;;;;;;;4975246;28;20171;-65
2022/01/13 12:12:57;;;;;;;17.67;8.38;;;;;;;;;;4974918;28;20210;-65
2022/01/13 12:15:23;;;;;;;14.68;7.85;;;;;;;;;;4977142;28;20210;-65
2022/01/13 12:17:50;;;;;;;15.05;8.15;;;;;;;;;;4978423;28;20194;-65
2022/01/13 12:20:27;;;;;;;18.48;8.30;;;;;;;;;;4978193;28;20607;-65
2022/01/13 12:23:15;;;;;;;17.35;8.85;;;;;;;;;;4978140;28;20206;-65
2022/01/13 12:25:41;;;;;;;20.48;9.23;;;;;;;;;;4978507;28;20606;-65
2022/01/13 12:28:19;;;;;;;17.75;8.32;;;;;;;;;;4978472;28;20196;-65
2022/01/13 12:30:45;;;;;;;18.92;8.75;;;;;;;;;;4977933;28;20167;-65
2022/01/13 12:33:12;;;;;;;14.50;7.00;;;;;;;;;;4978583;28;20206;-65
2022/01/13 12:35:37;;;;;;;17.65;8.23;;;;;;;;;;4977978;28;20172;-65
2022/01/13 12:38:12;;;;;;;18.13;8.43;;;;;;;;;;4978045;28;20171;-65
2022/01/13 12:40:42;;;;;;;17.55;8.43;;;;;;;;;;4977878;28;20174;-65
2022/01/13 12:43:34;;;;;;;20.42;9.05;;;;;;;;;;4978202;28;20206;-65
2022/01/13 12:46:05;;;;;;;18.35;9.27;;;;;;;;;;4978513;28;20510;-64
2022/01/13 12:48:31;;;;;;;17.42;8.40;;;;;;;;;;4978292;28;20512;-64
2022/01/13 12:50:59;;;;;;;21.10;9.07;;;;;;;;;;4978156;28;20231;-64
2022/01/13 12:53:26;;;;;;;14.88;8.30;;;;;;;;;;4978938;28;20212;-64
2022/01/13 12:56:04;;;;;;;22.02;8.45;;;;;;;;;;4978728;28;20172;-63
2022/01/13 12:58:32;;;;;;;18.23;8.52;;;;;;;;;;4978103;28;20566;-64
2022/01/13 13:01:08;;;;;;;22.90;8.90;;;;;;;;;;4978126;28;20561;-64
2022/01/13 13:03:35;;;;;;;19.95;8.32;;;;;;;;;;4978558;28;20155;-64
2022/01/13 13:06:01;;;;;;;21.58;8.95;;;;;;;;;;4978446;28;20179;-64
2022/01/13 13:08:27;;;;;;;18.33;8.27;;;;;;;;;;4978180;28;20192;-64
2022/01/13 13:10:57;;;;;;;23.30;8.75;;;;;;;;;;4978062;28;20607;-64
2022/01/13 13:13:23;;;;;;;18.83;8.45;;;;;;;;;;4978310;28;20214;-65
2022/01/13 13:15:58;;;;;;;20.58;8.65;;;;;;;;;;4978368;28;20176;-64
2022/01/13 13:18:25;;;;;;;14.73;7.50;;;;;;;;;;4978367;28;20627;-64
2022/01/13 13:20:51;;;;;;;21.95;8.63;;;;;;;;;;4978415;28;20242;-64
2022/01/13 13:23:20;;;;;;;17.35;8.60;;;;;;;;;;4978905;28;20178;-64
2022/01/13 13:25:48;;;;;;;23.17;8.50;;;;;;;;;;4978179;28;20175;-64
2022/01/13 13:28:18;;;;;;;19.60;8.10;;;;;;;;;;4978397;28;20188;-64
2022/01/13 13:30:45;;;;;;;20.02;8.18;;;;;;;;;;4978477;28;20164;-64
2022/01/13 13:33:10;;;;;;;22.23;8.82;;;;;;;;;;4978199;28;20241;-64
2022/01/13 13:35:36;;;;;;;18.38;7.63;;;;;;;;;;4978001;28;20168;-64
2022/01/13 13:38:02;;;;;;;16.23;7.80;;;;;;;;;;4978281;28;20586;-64
2022/01/13 13:40:28;;;;;;;18.92;7.80;;;;;;;;;;4977961;28;20206;-64
2022/01/13 13:43:01;;;;;;;24.83;8.82;;;;;;;;;;4977683;28;20167;-64
2022/01/13 13:45:27;;;;;;;24.50;8.55;;;;;;;;;;4977528;28;20180;-64
2022/01/13 13:47:54;;;;;;;20.02;7.60;;;;;;;;;;4977601;28;20274;-65
2022/01/13 13:50:20;;;;;;;15.65;7.28;;;;;;;;;;4977174;28;20164;-65
2022/01/13 13:52:46;;;;;;;21.00;7.60;;;;;;;;;;4977526;28;20172;-64
2022/01/13 13:55:12;;;;;;;15.40;6.32;;;;;;;;;;4977529;28;20219;-64
2022/01/13 13:57:39;;;;;;;16.33;6.28;;;;;;;;;;4977790;28;20178;-65
2022/01/13 14:00:09;;;;;;;14.73;6.47;;;;;;;;;;4977685;28;20168;-65
2022/01/13 14:02:36;;;;;;;15.65;6.57;;;;;;;;;;4977911;28;20176;-65
2022/01/13 14:05:09;;;;;;;16.73;6.95;;;;;;;;;;4978078;28;20560;-64
2022/01/13 14:07:38;;;;;;;17.38;6.38;;;;;;;;;;4978059;28;20289;-64
2022/01/13 14:10:15;;;;;;;17.63;6.50;;;;;;;;;;4978530;28;20178;-65
2022/01/13 14:12:42;;;;;;;18.80;6.65;;;;;;;;;;4977574;28;20583;-65
2022/01/13 14:15:15;;;;;;;10.57;5.60;;;;;;;;;;4978125;28;20164;-64
2022/01/13 14:17:42;;;;;;;15.25;6.00;;;;;;;;;;4977282;28;20178;-64
2022/01/13 14:20:09;;;;;;;19.83;6.85;;;;;;;;;;4977323;28;20182;-64
2022/01/13 14:22:35;;;;;;;17.27;6.22;;;;;;;;;;4977358;28;20183;-64
2022/01/13 14:25:01;;;;;;;14.57;6.47;;;;;;;;;;4978174;28;20208;-65
2022/01/13 14:27:27;;;;;;;17.20;6.03;;;;;;;;;;4978045;28;20207;-64
2022/01/13 14:29:53;;;;;;;16.10;6.43;;;;;;;;;;4977896;28;20172;-64
2022/01/13 14:32:19;;;;;;;17.65;5.70;;;;;;;;;;4977797;28;20246;-65
2022/01/13 14:34:50;;;;;;;9.00;5.22;;;;;;;;;;4976637;28;20202;-63
2022/01/13 14:37:16;;;;;;;12.63;5.90;;;;;;;;;;4975507;28;20565;-64
2022/01/13 14:39:42;;;;;;;18.48;6.47;;;;;;;;;;4976259;28;20186;-65
2022/01/13 14:42:14;;;;;;;12.25;5.22;;;;;;;;;;4975781;28;20168;-64
2022/01/13 14:44:40;;;;;;;11.60;5.22;;;;;;;;;;4976257;28;20162;-64
2022/01/13 14:47:07;;;;;;;11.30;5.25;;;;;;;;;;4975703;28;20241;-64
2022/01/13 14:49:35;;;;;;;10.88;5.40;;;;;;;;;;4976342;28;20159;-63
2022/01/13 14:52:03;;;;;;;9.55;4.97;;;;;;;;;;4976905;28;20575;-63